createdAt,value
2022-12-26T00:00:08.107Z,89.40
2022-12-26T00:02:35.370Z,88.81
2022-12-26T00:05:02.410Z,88.27
2022-12-26T00:07:29.449Z,87.82
2022-12-26T00:09:56.466Z,87.21
2022-12-26T00:12:23.331Z,87.30
2022-12-26T00:14:50.381Z,87.08
2022-12-26T00:17:17.284Z,87.34
2022-12-26T00:19:44.375Z,87.55
2022-12-26T00:22:11.210Z,87.74
2022-12-26T00:24:38.010Z,89.10
2022-12-26T00:27:04.874Z,89.82
2022-12-26T00:29:31.856Z,90.16
2022-12-26T00:31:58.932Z,89.39
2022-12-26T00:34:25.813Z,88.67
2022-12-26T00:36:52.728Z,89.70
2022-12-26T00:39:19.717Z,89.68
2022-12-26T00:41:46.662Z,88.76
2022-12-26T00:44:13.557Z,88.66
2022-12-26T00:46:40.504Z,89.08
2022-12-26T00:49:07.493Z,89.03
2022-12-26T00:51:34.557Z,88.76
2022-12-26T00:54:01.451Z,89.24
2022-12-26T00:56:28.359Z,88.54
2022-12-26T00:58:55.362Z,88.86
2022-12-26T01:01:23.584Z,88.53
2022-12-26T01:03:51.686Z,88.17
2022-12-26T01:06:18.966Z,88.08
2022-12-26T01:08:46.013Z,87.34
2022-12-26T01:11:16.302Z,87.16
2022-12-26T01:13:44.265Z,87.05
2022-12-26T01:16:11.468Z,87.32
2022-12-26T01:18:38.467Z,87.03
2022-12-26T01:21:11.021Z,87.04
2022-12-26T01:23:37.936Z,86.80
2022-12-26T01:26:18.900Z,86.92
2022-12-26T01:28:50.281Z,86.47
2022-12-26T01:31:18.126Z,86.89
2022-12-26T01:33:45.179Z,86.88
2022-12-26T01:36:12.460Z,86.89
2022-12-26T01:38:39.239Z,86.75
2022-12-26T01:41:06.670Z,86.71
2022-12-26T01:43:48.868Z,86.36
2022-12-26T01:46:18.012Z,86.50
2022-12-26T01:48:46.191Z,86.52
2022-12-26T01:51:15.102Z,86.63
2022-12-26T01:53:50.373Z,86.47
2022-12-26T01:56:26.422Z,86.44
2022-12-26T01:59:02.782Z,86.64
2022-12-26T02:01:33.684Z,86.25
2022-12-26T02:04:04.961Z,86.11
2022-12-26T02:06:33.524Z,86.82
2022-12-26T02:09:00.811Z,86.94
2022-12-26T02:11:35.473Z,86.97
2022-12-26T02:14:07.014Z,87.47
2022-12-26T02:16:35.907Z,87.16
2022-12-26T02:19:04.370Z,87.71
2022-12-26T02:22:02.116Z,87.95
2022-12-26T02:25:02.364Z,87.61
2022-12-26T02:27:46.608Z,87.48
2022-12-26T02:30:31.920Z,87.41
2022-12-26T02:33:17.258Z,86.88
2022-12-26T02:35:53.449Z,86.93
2022-12-26T02:38:57.303Z,86.17
2022-12-26T02:41:34.339Z,86.60
2022-12-26T02:44:13.034Z,86.08
2022-12-26T02:46:47.663Z,85.04
2022-12-26T02:49:33.117Z,85.54
2022-12-26T02:52:24.095Z,86.65
2022-12-26T02:55:11.887Z,86.87
2022-12-26T02:57:45.015Z,86.21
2022-12-26T03:00:18.025Z,85.79
2022-12-26T03:02:53.795Z,85.36
2022-12-26T03:05:29.123Z,84.95
2022-12-26T03:07:57.137Z,84.30
2022-12-26T03:10:29.159Z,84.51
2022-12-26T03:13:01.637Z,84.98
2022-12-26T03:15:31.804Z,85.16
2022-12-26T03:18:06.673Z,85.35
2022-12-26T03:20:36.211Z,85.16
2022-12-26T03:23:08.140Z,85.28
2022-12-26T03:25:48.876Z,85.13
2022-12-26T03:28:16.497Z,85.47
2022-12-26T03:30:43.508Z,85.49
2022-12-26T03:33:10.816Z,85.50
2022-12-26T03:35:37.763Z,85.51
2022-12-26T03:38:16.372Z,85.91
2022-12-26T03:41:10.252Z,85.56
2022-12-26T03:44:02.896Z,85.63
2022-12-26T03:47:09.412Z,85.31
2022-12-26T03:49:45.104Z,85.24
2022-12-26T03:52:20.853Z,85.82
2022-12-26T03:54:47.826Z,85.56
2022-12-26T03:57:21.656Z,85.20
2022-12-26T04:00:12.677Z,85.58
2022-12-26T04:02:41.471Z,86.00
2022-12-26T04:05:11.345Z,86.20
2022-12-26T04:07:56.580Z,86.03
2022-12-26T04:10:33.493Z,86.84
2022-12-26T04:13:03.813Z,87.90
2022-12-26T04:15:48.460Z,87.47
2022-12-26T04:18:19.511Z,87.71
2022-12-26T04:21:02.784Z,87.77
2022-12-26T04:23:44.387Z,87.62
2022-12-26T04:26:22.577Z,87.55
2022-12-26T04:28:49.609Z,87.67
2022-12-26T04:31:50.438Z,87.45
2022-12-26T04:34:32.649Z,86.52
2022-12-26T04:37:03.919Z,86.66
2022-12-26T04:39:35.144Z,85.50
2022-12-26T04:42:02.663Z,84.69
2022-12-26T04:44:30.861Z,85.46
2022-12-26T04:46:57.822Z,85.19
2022-12-26T04:49:24.772Z,84.56
2022-12-26T04:51:52.382Z,84.33
2022-12-26T04:54:19.497Z,84.04
2022-12-26T04:56:46.483Z,83.67
2022-12-26T04:59:13.770Z,83.04
2022-12-26T05:01:40.835Z,83.48
2022-12-26T05:04:13.541Z,82.66
2022-12-26T05:06:40.416Z,82.31
2022-12-26T05:09:11.029Z,81.97
2022-12-26T05:11:38.217Z,82.39
2022-12-26T05:14:04.992Z,82.28
2022-12-26T05:16:31.895Z,81.99
2022-12-26T05:18:58.732Z,81.72
2022-12-26T05:21:25.658Z,81.59
2022-12-26T05:23:52.515Z,81.48
2022-12-26T05:26:23.521Z,82.50
2022-12-26T05:28:57.373Z,80.94
2022-12-26T05:31:26.268Z,81.41
2022-12-26T05:33:55.419Z,82.90
2022-12-26T05:36:25.262Z,84.08
2022-12-26T05:38:52.116Z,86.00
2022-12-26T05:41:19.658Z,86.15
2022-12-26T05:43:55.878Z,86.04
2022-12-26T05:46:22.882Z,85.70
2022-12-26T05:48:49.723Z,84.95
2022-12-26T05:51:16.727Z,84.18
2022-12-26T05:53:43.697Z,83.45
2022-12-26T05:56:15.789Z,83.38
2022-12-26T05:58:43.471Z,83.04
2022-12-26T06:01:13.590Z,83.01
2022-12-26T06:03:55.124Z,84.39
2022-12-26T06:06:23.754Z,86.44
2022-12-26T06:08:53.006Z,89.76
2022-12-26T06:11:20.750Z,91.36
2022-12-26T06:13:48.890Z,93.18
2022-12-26T06:16:18.276Z,93.58
2022-12-26T06:18:45.930Z,94.20
2022-12-26T06:21:18.553Z,95.39
2022-12-26T06:23:45.659Z,95.72
2022-12-26T06:26:13.253Z,95.68
2022-12-26T06:28:42.144Z,95.21
2022-12-26T06:31:15.566Z,95.61
2022-12-26T06:33:42.709Z,95.65
2022-12-26T06:36:15.844Z,96.44
2022-12-26T06:38:43.635Z,96.25
2022-12-26T06:41:13.734Z,96.79
2022-12-26T06:43:40.929Z,96.92
2022-12-26T06:46:10.244Z,97.19
2022-12-26T06:48:37.155Z,97.08
2022-12-26T06:51:05.945Z,96.75
2022-12-26T06:53:34.422Z,97.30
2022-12-26T06:56:14.109Z,96.93
2022-12-26T06:58:41.895Z,96.06
2022-12-26T07:01:14.384Z,95.02
2022-12-26T07:03:48.571Z,95.06
2022-12-26T07:06:23.731Z,94.73
2022-12-26T07:08:51.671Z,94.72
2022-12-26T07:11:21.528Z,94.52
2022-12-26T07:13:48.485Z,95.27
2022-12-26T07:16:15.454Z,95.14
2022-12-26T07:18:43.124Z,95.05
2022-12-26T07:21:13.316Z,95.09
2022-12-26T07:23:40.613Z,95.09
2022-12-26T07:26:08.091Z,95.00
2022-12-26T07:28:35.628Z,95.22
2022-12-26T07:31:03.374Z,95.38
2022-12-26T07:33:30.695Z,95.12
2022-12-26T07:36:01.578Z,94.91
2022-12-26T07:38:28.474Z,94.54
2022-12-26T07:40:58.954Z,94.52
2022-12-26T07:43:26.397Z,94.50
2022-12-26T07:45:53.395Z,94.17
2022-12-26T07:48:20.455Z,94.60
2022-12-26T07:50:47.460Z,94.34
2022-12-26T07:53:15.341Z,94.75
2022-12-26T07:55:42.256Z,94.95
2022-12-26T07:58:09.236Z,94.70
2022-12-26T08:00:36.201Z,94.93
2022-12-26T08:03:07.438Z,95.35
2022-12-26T08:05:35.233Z,93.94
2022-12-26T08:08:02.345Z,93.61
2022-12-26T08:10:29.401Z,92.76
2022-12-26T08:12:56.412Z,92.83
2022-12-26T08:15:23.299Z,91.99
2022-12-26T08:17:50.205Z,90.84
2022-12-26T08:20:17.144Z,89.35
2022-12-26T08:22:44.054Z,88.97
2022-12-26T08:25:11.922Z,88.88
2022-12-26T08:27:40.293Z,87.86
2022-12-26T08:30:08.176Z,86.68
2022-12-26T08:32:36.206Z,86.97
2022-12-26T08:35:05.784Z,87.33
2022-12-26T08:37:32.985Z,86.71
2022-12-26T08:40:00.044Z,86.18
2022-12-26T08:42:27.004Z,87.84
2022-12-26T08:44:54.346Z,87.62
2022-12-26T08:47:21.409Z,87.28
2022-12-26T08:49:48.345Z,86.94
2022-12-26T08:52:15.196Z,85.71
2022-12-26T08:54:42.232Z,86.18
2022-12-26T08:57:09.256Z,86.05
2022-12-26T08:59:36.257Z,86.29
2022-12-26T09:02:03.379Z,86.16
2022-12-26T09:04:30.555Z,85.88
2022-12-26T09:06:57.454Z,85.46
2022-12-26T09:09:24.433Z,86.00
2022-12-26T09:11:51.468Z,85.57
2022-12-26T09:14:18.421Z,85.65
2022-12-26T09:16:50.117Z,84.97
2022-12-26T09:19:19.243Z,85.54
2022-12-26T09:21:47.680Z,84.99
2022-12-26T09:24:17.986Z,84.31
2022-12-26T09:26:45.539Z,82.83
2022-12-26T09:29:13.926Z,82.67
2022-12-26T09:31:40.885Z,82.49
2022-12-26T09:34:08.638Z,82.21
2022-12-26T09:36:37.849Z,82.10
2022-12-26T09:39:05.747Z,81.82
2022-12-26T09:41:32.619Z,82.03
2022-12-26T09:44:22.155Z,81.76
2022-12-26T09:47:08.092Z,81.21
2022-12-26T09:49:37.692Z,80.87
2022-12-26T09:52:15.929Z,80.24
2022-12-26T09:54:53.215Z,79.94
2022-12-26T09:57:44.222Z,80.38
2022-12-26T10:00:18.802Z,80.38
2022-12-26T10:02:52.099Z,80.96
2022-12-26T10:05:25.204Z,80.22
2022-12-26T10:08:13.380Z,81.05
2022-12-26T10:10:53.537Z,81.44
2022-12-26T10:13:26.323Z,81.38
2022-12-26T10:16:32.337Z,81.68
2022-12-26T10:19:01.982Z,80.51
2022-12-26T10:21:31.900Z,78.81
2022-12-26T10:24:04.841Z,78.06
2022-12-26T10:26:36.727Z,78.52
2022-12-26T10:29:09.745Z,79.53
2022-12-26T10:31:45.785Z,76.19
2022-12-26T10:34:36.983Z,76.83
2022-12-26T10:37:25.030Z,78.33
2022-12-26T10:40:09.995Z,78.72
2022-12-26T10:42:50.850Z,78.23
2022-12-26T10:45:36.746Z,78.71
2022-12-26T10:48:04.461Z,78.63
2022-12-26T10:50:33.643Z,78.24
2022-12-26T10:53:03.777Z,78.49
2022-12-26T10:55:34.550Z,76.99
2022-12-26T10:58:18.086Z,77.86
2022-12-26T11:00:45.447Z,77.99
2022-12-26T11:03:15.253Z,76.80
2022-12-26T11:08:49.263Z,78.27
2022-12-26T11:11:34.299Z,78.70
2022-12-26T11:14:03.107Z,78.53
2022-12-26T11:16:35.305Z,78.94
2022-12-26T11:19:03.279Z,78.85
2022-12-26T11:21:32.422Z,79.12
2022-12-26T11:24:08.325Z,76.27
2022-12-26T11:26:36.607Z,77.12
2022-12-26T11:29:21.825Z,77.04
2022-12-26T11:32:02.041Z,77.89
2022-12-26T11:34:34.185Z,77.02
2022-12-26T11:37:01.962Z,77.62
2022-12-26T11:39:33.449Z,78.03
2022-12-26T11:42:00.697Z,75.24
2022-12-26T11:44:37.288Z,75.00
2022-12-26T11:47:16.225Z,74.00
2022-12-26T11:49:49.193Z,74.59
2022-12-26T11:52:40.088Z,75.03
2022-12-26T11:55:36.220Z,76.41
2022-12-26T11:58:18.212Z,76.16
2022-12-26T12:00:51.293Z,76.35
2022-12-26T12:03:48.671Z,76.78
2022-12-26T12:06:31.034Z,75.51
2022-12-26T12:09:19.338Z,76.61
2022-12-26T12:11:55.182Z,76.63
2022-12-26T12:14:38.100Z,75.34
2022-12-26T12:17:26.589Z,75.19
2022-12-26T12:20:23.529Z,75.34
2022-12-26T12:23:05.674Z,75.69
2022-12-26T12:25:40.251Z,75.60
2022-12-26T12:28:18.898Z,74.98
2022-12-26T12:31:03.764Z,73.07
2022-12-26T12:33:48.848Z,69.00
2022-12-26T12:36:31.719Z,71.13
2022-12-26T12:39:10.539Z,73.41
2022-12-26T12:41:52.650Z,74.46
2022-12-26T12:44:29.534Z,74.37
2022-12-26T12:47:35.081Z,73.96
2022-12-26T12:50:20.286Z,73.82
2022-12-26T12:52:55.940Z,74.16
2022-12-26T12:55:43.037Z,72.70
2022-12-26T12:58:18.907Z,73.81
2022-12-26T13:00:52.755Z,73.94
2022-12-26T13:03:29.279Z,72.80
2022-12-26T13:06:11.230Z,72.90
2022-12-26T13:08:48.651Z,72.56
2022-12-26T13:11:33.171Z,73.07
2022-12-26T13:14:24.471Z,73.69
2022-12-26T13:17:11.722Z,72.74
2022-12-26T13:20:26.789Z,72.35
2022-12-26T13:22:59.796Z,71.95
2022-12-26T13:25:34.851Z,71.97
2022-12-26T13:28:09.160Z,71.58
2022-12-26T13:30:38.130Z,70.47
2022-12-26T13:33:06.019Z,70.87
2022-12-26T13:35:53.743Z,71.07
2022-12-26T13:38:22.771Z,70.62
2022-12-26T13:40:57.323Z,69.70
2022-12-26T13:43:25.551Z,70.28
2022-12-26T13:45:58.592Z,70.24
2022-12-26T13:48:28.550Z,70.49
2022-12-26T13:50:57.970Z,70.94
2022-12-26T13:53:24.798Z,70.72
2022-12-26T13:55:55.815Z,70.95
2022-12-26T13:58:44.133Z,70.78
2022-12-26T14:01:39.180Z,71.73
2022-12-26T14:04:18.151Z,71.39
2022-12-26T14:07:11.388Z,71.82
2022-12-26T14:10:04.945Z,72.03
2022-12-26T14:12:49.590Z,71.44
2022-12-26T14:15:48.820Z,71.31
2022-12-26T14:18:38.280Z,69.09
2022-12-26T14:21:14.004Z,68.95
2022-12-26T14:23:57.799Z,68.79
2022-12-26T14:26:49.968Z,69.01
2022-12-26T14:29:34.837Z,68.47
2022-12-26T14:32:10.647Z,68.94
2022-12-26T14:34:58.638Z,68.70
2022-12-26T14:37:47.086Z,68.68
2022-12-26T14:40:31.656Z,69.19
2022-12-26T14:43:14.228Z,69.05
2022-12-26T14:46:02.212Z,68.41
2022-12-26T14:48:29.054Z,68.91
2022-12-26T14:51:05.306Z,68.43
2022-12-26T14:53:35.792Z,68.40
2022-12-26T14:56:09.931Z,68.47
2022-12-26T14:58:42.653Z,69.08
2022-12-26T15:01:09.752Z,67.56
2022-12-26T15:03:58.417Z,69.23
2022-12-26T15:07:20.607Z,68.52
2022-12-26T15:10:35.863Z,68.96
2022-12-26T15:13:18.160Z,69.06
2022-12-26T15:16:03.680Z,69.81
2022-12-26T15:19:05.808Z,70.06
2022-12-26T15:21:50.784Z,69.50
2022-12-26T15:25:20.860Z,69.34
2022-12-26T15:27:48.045Z,69.25
2022-12-26T15:30:17.377Z,68.89
2022-12-26T15:32:54.243Z,69.14
2022-12-26T15:35:43.803Z,69.01
2022-12-26T15:38:29.269Z,69.37
2022-12-26T15:41:13.854Z,69.34
2022-12-26T15:44:09.700Z,70.16
2022-12-26T15:46:43.714Z,70.80
2022-12-26T15:49:46.165Z,71.48
2022-12-26T15:52:28.037Z,72.30
2022-12-26T15:55:12.948Z,73.17
2022-12-26T15:58:01.255Z,73.18
2022-12-26T16:00:36.233Z,73.12
2022-12-26T16:03:21.507Z,73.34
2022-12-26T16:05:54.078Z,73.13
2022-12-26T16:08:55.023Z,72.98
2022-12-26T16:11:26.343Z,72.63
2022-12-26T16:14:02.723Z,72.42
2022-12-26T16:16:33.345Z,71.31
2022-12-26T16:19:16.531Z,71.47
2022-12-26T16:21:48.020Z,71.35
2022-12-26T16:24:22.549Z,71.73
2022-12-26T16:26:49.732Z,70.91
2022-12-26T16:29:20.527Z,70.52
2022-12-26T16:31:47.881Z,71.16
2022-12-26T16:34:18.426Z,71.08
2022-12-26T16:36:45.803Z,71.17
2022-12-26T16:39:13.345Z,71.28
2022-12-26T16:42:03.887Z,71.11
2022-12-26T16:44:40.784Z,71.96
2022-12-26T16:47:13.135Z,71.74
2022-12-26T16:49:41.013Z,71.72
2022-12-26T16:52:07.979Z,71.64
2022-12-26T16:54:40.421Z,71.27
2022-12-26T16:57:19.381Z,71.29
2022-12-26T16:59:52.348Z,71.64
2022-12-26T17:02:34.521Z,71.39
2022-12-26T17:05:16.108Z,71.27
2022-12-26T17:07:45.529Z,71.17
2022-12-26T17:10:23.207Z,71.46
2022-12-26T17:12:51.182Z,71.12
2022-12-26T17:15:25.704Z,70.79
2022-12-26T17:17:52.671Z,70.65
2022-12-26T17:20:22.580Z,70.31
2022-12-26T17:22:54.454Z,70.33
2022-12-26T17:25:32.011Z,70.68
2022-12-26T17:28:19.022Z,70.86
2022-12-26T17:30:47.927Z,70.86
2022-12-26T17:33:22.788Z,71.09
2022-12-26T17:38:40.654Z,70.71
2022-12-26T17:41:09.409Z,70.80
2022-12-26T17:43:38.989Z,70.74
2022-12-26T17:46:08.023Z,70.48
2022-12-26T17:48:35.542Z,70.24
2022-12-26T17:51:05.207Z,70.27
2022-12-26T17:53:35.807Z,70.87
2022-12-26T17:56:10.832Z,70.38
2022-12-26T17:58:38.896Z,70.52
2022-12-26T18:01:05.810Z,70.37
2022-12-26T18:03:32.887Z,70.91
2022-12-26T18:05:59.831Z,70.62
2022-12-26T18:08:29.274Z,71.13
2022-12-26T18:10:56.610Z,72.17
2022-12-26T18:13:24.107Z,71.87
2022-12-26T18:15:52.697Z,71.33
2022-12-26T18:18:29.880Z,71.63
2022-12-26T18:20:56.765Z,70.57
2022-12-26T18:23:24.035Z,70.80
2022-12-26T18:25:54.533Z,70.20
2022-12-26T18:28:23.906Z,70.68
2022-12-26T18:30:50.869Z,71.36
2022-12-26T18:33:17.774Z,71.60
2022-12-26T18:35:45.491Z,71.74
2022-12-26T18:38:18.241Z,71.70
2022-12-26T18:40:48.027Z,71.25
2022-12-26T18:43:15.217Z,71.47
2022-12-26T18:45:43.036Z,70.88
2022-12-26T18:48:14.022Z,70.35
2022-12-26T18:50:41.636Z,70.49
2022-12-26T18:53:08.683Z,70.49
2022-12-26T18:55:35.716Z,71.36
2022-12-26T18:58:02.832Z,70.80
2022-12-26T19:00:29.771Z,70.50
2022-12-26T19:02:56.840Z,70.99
2022-12-26T19:05:29.231Z,71.07
2022-12-26T19:07:56.508Z,71.15
2022-12-26T19:10:30.255Z,70.95
2022-12-26T19:13:04.624Z,71.04
2022-12-26T19:15:33.563Z,70.90
2022-12-26T19:18:01.039Z,70.58
2022-12-26T19:20:28.893Z,70.60
2022-12-26T19:22:56.242Z,70.99
2022-12-26T19:25:24.826Z,70.93
2022-12-26T19:27:52.091Z,71.20
2022-12-26T19:30:23.225Z,71.46
2022-12-26T19:32:50.805Z,71.00
2022-12-26T19:35:18.759Z,71.11
2022-12-26T19:37:45.784Z,71.35
2022-12-26T19:40:14.295Z,72.32
2022-12-26T19:42:42.473Z,72.08
2022-12-26T19:45:11.238Z,71.98
2022-12-26T19:47:38.106Z,71.89
2022-12-26T19:50:06.901Z,71.77
2022-12-26T19:52:34.371Z,71.20
2022-12-26T19:55:01.334Z,71.56
2022-12-26T19:57:28.263Z,71.17
2022-12-26T19:59:55.208Z,71.66
2022-12-26T20:02:22.187Z,71.81
2022-12-26T20:04:49.276Z,71.96
2022-12-26T20:07:16.191Z,72.26
2022-12-26T20:09:43.144Z,72.81
2022-12-26T20:12:10.195Z,72.39
2022-12-26T20:14:37.275Z,72.62
2022-12-26T20:17:08.247Z,72.88
2022-12-26T20:19:36.474Z,74.02
2022-12-26T20:22:04.862Z,73.42
2022-12-26T20:24:31.990Z,73.03
2022-12-26T20:26:59.004Z,72.78
2022-12-26T20:29:26.027Z,72.85
2022-12-26T20:31:52.979Z,73.06
2022-12-26T20:34:19.903Z,72.89
2022-12-26T20:36:46.974Z,72.61
2022-12-26T20:39:16.906Z,72.54
2022-12-26T20:41:44.049Z,72.15
2022-12-26T20:44:13.363Z,72.49
2022-12-26T20:46:42.319Z,71.68
2022-12-26T20:49:09.772Z,72.11
2022-12-26T20:51:38.516Z,71.85
2022-12-26T20:54:10.189Z,71.59
2022-12-26T20:56:38.722Z,71.88
2022-12-26T20:59:06.971Z,72.07
2022-12-26T21:01:34.508Z,72.23
2022-12-26T21:04:01.807Z,71.92
2022-12-26T21:06:33.269Z,71.93
2022-12-26T21:09:00.387Z,71.96
2022-12-26T21:11:30.536Z,71.75
2022-12-26T21:14:01.206Z,71.88
2022-12-26T21:16:38.226Z,71.79
2022-12-26T21:19:10.685Z,71.65
2022-12-26T21:21:42.888Z,72.10
2022-12-26T21:24:28.291Z,75.35
2022-12-26T21:26:56.463Z,76.62
2022-12-26T21:29:29.719Z,76.57
2022-12-26T21:31:57.265Z,76.80
2022-12-26T21:34:26.189Z,76.53
2022-12-26T21:36:53.714Z,76.34
2022-12-26T21:39:20.653Z,77.17
2022-12-26T21:41:47.482Z,76.96
2022-12-26T21:44:14.341Z,76.78
2022-12-26T21:46:41.117Z,77.93
2022-12-26T21:49:08.132Z,77.37
2022-12-26T21:51:35.118Z,77.01
2022-12-26T21:54:02.038Z,77.35
2022-12-26T21:56:28.900Z,76.54
2022-12-26T21:58:55.951Z,76.83
2022-12-26T22:01:25.463Z,76.51
2022-12-26T22:03:53.089Z,78.40
2022-12-26T22:06:19.957Z,77.28
2022-12-26T22:08:46.778Z,76.68
2022-12-26T22:11:17.835Z,76.32
2022-12-26T22:13:44.748Z,76.10
2022-12-26T22:16:13.064Z,75.31
2022-12-26T22:18:41.494Z,76.62
2022-12-26T22:21:12.781Z,77.23
2022-12-26T22:23:40.967Z,76.52
2022-12-26T22:26:09.347Z,76.77
2022-12-26T22:28:36.389Z,82.64
2022-12-26T22:31:03.505Z,84.19
2022-12-26T22:33:31.259Z,82.36
2022-12-26T22:36:09.163Z,81.49
2022-12-26T22:38:38.089Z,80.70
2022-12-26T22:41:06.163Z,79.85
2022-12-26T22:43:33.310Z,80.43
2022-12-26T22:46:00.364Z,79.13
2022-12-26T22:48:27.341Z,78.67
2022-12-26T22:50:55.645Z,78.28
2022-12-26T22:53:24.802Z,77.93
2022-12-26T22:55:56.712Z,77.42
2022-12-26T22:58:23.646Z,79.21
2022-12-26T23:00:50.587Z,79.07
2022-12-26T23:03:18.173Z,79.13
2022-12-26T23:05:45.861Z,78.47
2022-12-26T23:08:25.227Z,78.10
2022-12-26T23:10:54.455Z,77.74
2022-12-26T23:13:21.784Z,77.40
2022-12-26T23:16:00.329Z,77.81
2022-12-26T23:18:45.763Z,78.43
2022-12-26T23:21:27.212Z,78.17
2022-12-26T23:23:54.075Z,78.46
2022-12-26T23:26:21.074Z,78.13
2022-12-26T23:28:48.151Z,77.58
2022-12-26T23:31:15.409Z,77.48
2022-12-26T23:33:42.292Z,77.56
2022-12-26T23:36:09.498Z,77.18
2022-12-26T23:38:36.330Z,77.56
2022-12-26T23:41:03.493Z,77.47
2022-12-26T23:43:30.447Z,78.95
2022-12-26T23:45:57.371Z,78.62
2022-12-26T23:48:24.215Z,78.75
2022-12-26T23:50:51.203Z,78.09
2022-12-26T23:53:18.111Z,77.78
2022-12-26T23:55:44.885Z,77.70
2022-12-26T23:58:11.787Z,77.50
